Time;durP1;ratioP1;P1;durP2;ratioP2;P2;SDS_P1;SDS_P2;PMS_P1;PMS_P2;Temp;Humidity;BMP_temperature;BMP_pressure;BME280_temperature;BME280_humidity;BME280_pressure;Samples;Min_cycle;Max_cycle;Signal;HPM_P1;HPM_P2
2023/12/03 00:02:05;;;;;;;12.02;8.50;;;-0.10;99.90;;;;;;5038084;28;20469;-83
2023/12/03 00:04:31;;;;;;;10.38;7.57;;;-0.20;99.90;;;;;;5040906;28;20652;-83
2023/12/03 00:06:56;;;;;;;9.67;7.20;;;-0.10;99.90;;;;;;5040681;28;20221;-83
2023/12/03 00:09:22;;;;;;;11.53;8.40;;;-0.20;99.90;;;;;;5039166;28;20193;-83
2023/12/03 00:11:47;;;;;;;11.23;7.80;;;-0.30;99.90;;;;;;5034286;28;20190;-82
2023/12/03 00:14:13;;;;;;;10.60;7.93;;;-0.30;99.90;;;;;;5036580;28;20218;-82
2023/12/03 00:16:38;;;;;;;9.70;7.70;;;-0.50;99.90;;;;;;5036219;28;20236;-82
2023/12/03 00:19:04;;;;;;;8.70;7.53;;;-0.30;99.90;;;;;;5037024;28;20178;-82
2023/12/03 00:21:29;;;;;;;8.77;6.90;;;-0.50;99.90;;;;;;5036738;28;20245;-82
2023/12/03 00:23:55;;;;;;;10.70;8.00;;;-0.20;99.90;;;;;;5036701;28;20233;-82
2023/12/03 00:26:20;;;;;;;14.43;9.23;;;-0.70;99.90;;;;;;5038743;28;20198;-81
2023/12/03 00:28:46;;;;;;;15.57;8.30;;;-0.30;99.90;;;;;;5018569;28;20674;-84
2023/12/03 00:31:11;;;;;;;13.30;9.37;;;-0.30;99.90;;;;;;5035557;28;20604;-84
2023/12/03 00:33:37;;;;;;;10.13;7.50;;;-1.00;99.90;;;;;;5035281;28;20227;-84
2023/12/03 00:36:03;;;;;;;9.90;6.93;;;-0.50;99.90;;;;;;5051424;28;20202;-82
2023/12/03 00:38:28;;;;;;;9.57;7.70;;;-0.40;99.90;;;;;;5051928;28;20214;-81
2023/12/03 00:40:53;;;;;;;12.13;8.70;;;-0.10;99.90;;;;;;5041632;28;20186;-84
2023/12/03 00:43:19;;;;;;;11.20;7.63;;;0.20;99.90;;;;;;5044053;28;20229;-83
2023/12/03 00:45:45;;;;;;;10.17;8.03;;;0.20;99.90;;;;;;5042192;28;20662;-84
2023/12/03 00:48:10;;;;;;;11.00;8.13;;;-0.20;99.90;;;;;;5054404;28;20170;-84
2023/12/03 00:50:36;;;;;;;8.90;7.97;;;0.20;99.90;;;;;;5052305;28;20292;-84
2023/12/03 00:53:01;;;;;;;12.10;9.07;;;-0.30;99.90;;;;;;5041796;28;20217;-84
2023/12/03 00:55:27;;;;;;;10.40;8.07;;;-0.20;99.90;;;;;;5037853;28;20222;-84
2023/12/03 00:57:52;;;;;;;8.77;7.87;;;-0.30;99.90;;;;;;5037685;28;20197;-84
2023/12/03 01:00:18;;;;;;;8.80;7.33;;;-0.40;99.90;;;;;;5038761;28;20186;-84
2023/12/03 01:02:43;;;;;;;8.30;6.87;;;0.20;99.90;;;;;;5038304;28;20213;-81
2023/12/03 01:05:09;;;;;;;10.37;8.17;;;-0.20;99.90;;;;;;5045121;28;20218;-83
2023/12/03 01:07:34;;;;;;;11.33;7.97;;;-0.40;99.90;;;;;;5057900;28;20261;-83
2023/12/03 01:10:00;;;;;;;16.90;8.17;;;-0.50;99.90;;;;;;5048542;28;20270;-83
2023/12/03 01:12:26;;;;;;;10.40;7.50;;;-0.90;99.90;;;;;;5042408;28;21291;-83
2023/12/03 01:14:51;;;;;;;10.67;7.50;;;0.10;99.90;;;;;;5039915;28;20225;-83
2023/12/03 01:17:17;;;;;;;9.30;7.27;;;0.00;99.90;;;;;;5040601;28;20233;-83
2023/12/03 01:19:42;;;;;;;11.00;8.50;;;-0.30;99.90;;;;;;5039640;28;20644;-83
2023/12/03 01:22:08;;;;;;;10.37;8.70;;;-0.40;99.90;;;;;;5038646;28;20669;-83
2023/12/03 01:24:34;;;;;;;11.00;7.40;;;-0.20;99.90;;;;;;5036631;28;20253;-83
2023/12/03 01:26:59;;;;;;;9.87;8.43;;;-0.10;99.90;;;;;;5043416;28;20178;-83
2023/12/03 01:29:25;;;;;;;8.37;7.53;;;-0.30;99.90;;;;;;5036025;28;20448;-83
2023/12/03 01:31:50;;;;;;;9.67;7.77;;;-0.30;99.90;;;;;;5034747;28;20233;-83
2023/12/03 01:34:16;;;;;;;9.60;7.57;;;-0.90;99.90;;;;;;5028991;28;20229;-83
2023/12/03 01:36:41;;;;;;;9.53;7.17;;;-0.40;99.90;;;;;;5037962;28;20168;-83
2023/12/03 01:39:07;;;;;;;11.27;8.30;;;-0.70;99.90;;;;;;5059386;28;20163;-83
2023/12/03 01:41:32;;;;;;;10.33;7.47;;;-0.30;99.90;;;;;;5043098;28;20187;-83
2023/12/03 01:43:58;;;;;;;11.47;7.30;;;-0.30;99.90;;;;;;5038537;28;20215;-83
2023/12/03 01:46:23;;;;;;;10.03;7.50;;;-0.90;99.90;;;;;;5034696;28;20178;-83
2023/12/03 01:48:50;;;;;;;9.53;7.70;;;0.00;99.90;;;;;;5021214;28;20320;-83
2023/12/03 01:51:16;;;;;;;8.07;6.75;;;0.10;99.90;;;;;;5038364;28;20190;-83
2023/12/03 01:53:42;;;;;;;10.60;7.30;;;-0.10;99.90;;;;;;5035984;28;20198;-83
2023/12/03 01:56:12;;;;;;;9.35;7.55;;;0.10;99.90;;;;;;5039601;28;20203;-83
2023/12/03 01:58:40;;;;;;;10.52;7.15;;;0.10;99.90;;;;;;5032204;28;20186;-83
2023/12/03 02:01:06;;;;;;;8.93;7.25;;;-0.20;99.90;;;;;;5038873;28;20193;-83
2023/12/03 02:03:31;;;;;;;10.35;7.47;;;-0.30;99.90;;;;;;5034966;28;20203;-83
2023/12/03 02:06:10;;;;;;;11.77;7.90;;;-0.90;99.90;;;;;;5038017;28;20220;-83
2023/12/03 02:08:36;;;;;;;9.85;8.02;;;-0.20;99.90;;;;;;5042299;28;20192;-83
2023/12/03 02:11:04;;;;;;;9.60;6.80;;;-0.30;99.90;;;;;;5054185;28;20194;-83
2023/12/03 02:13:32;;;;;;;10.10;7.70;;;-0.20;99.90;;;;;;5034311;28;20257;-83
2023/12/03 02:15:57;;;;;;;9.73;7.50;;;0.30;99.90;;;;;;5038000;28;20222;-83
2023/12/03 02:18:24;;;;;;;10.23;8.60;;;0.00;99.90;;;;;;5033099;28;20187;-83
2023/12/03 02:20:50;;;;;;;8.00;6.75;;;-0.10;99.90;;;;;;5037156;28;20205;-83
2023/12/03 02:23:15;;;;;;;9.17;6.70;;;-0.10;99.90;;;;;;5037091;28;20842;-83
2023/12/03 02:25:41;;;;;;;12.03;6.97;;;-0.10;99.90;;;;;;5035357;28;20179;-82
2023/12/03 02:28:07;;;;;;;8.07;6.60;;;-0.30;99.90;;;;;;5031963;28;20194;-84
2023/12/03 02:30:33;;;;;;;8.73;6.57;;;0.10;99.90;;;;;;5036640;28;20205;-83
2023/12/03 02:32:58;;;;;;;10.90;7.97;;;-0.40;99.90;;;;;;5034867;28;20537;-84
2023/12/03 02:35:24;;;;;;;10.13;7.20;;;-0.40;99.90;;;;;;5037243;28;20329;-84
2023/12/03 02:37:49;;;;;;;8.87;7.50;;;0.10;99.90;;;;;;5033031;28;20189;-81
2023/12/03 02:40:15;;;;;;;9.23;7.10;;;-0.20;99.90;;;;;;5031299;28;20214;-84
2023/12/03 02:42:40;;;;;;;8.60;7.27;;;0.00;99.90;;;;;;5033282;28;20526;-81
2023/12/03 02:45:11;;;;;;;11.80;8.47;;;-0.20;99.90;;;;;;5032496;28;20203;-83
2023/12/03 02:47:37;;;;;;;9.48;6.95;;;-0.10;99.90;;;;;;5030238;28;20183;-83
2023/12/03 02:50:03;;;;;;;8.43;7.10;;;-0.10;99.90;;;;;;5035136;28;20233;-84
2023/12/03 02:52:28;;;;;;;31.37;12.00;;;-0.50;99.90;;;;;;5031752;28;20182;-81
2023/12/03 02:54:54;;;;;;;11.83;8.33;;;-0.50;99.90;;;;;;5031586;28;20342;-84
2023/12/03 02:57:19;;;;;;;11.50;8.00;;;-0.10;99.90;;;;;;5032920;28;20175;-83
2023/12/03 02:59:45;;;;;;;8.93;7.23;;;-0.30;99.90;;;;;;5031786;28;20178;-84
2023/12/03 03:02:10;;;;;;;18.17;10.30;;;-0.50;99.90;;;;;;5031630;28;20184;-81
2023/12/03 03:04:36;;;;;;;9.50;7.57;;;-0.50;99.90;;;;;;5034409;28;20236;-82
2023/12/03 03:07:01;;;;;;;17.00;9.50;;;-0.20;99.90;;;;;;5033708;28;20217;-84
2023/12/03 03:09:27;;;;;;;10.00;7.30;;;0.20;99.90;;;;;;5035712;28;20190;-82
2023/12/03 03:11:54;;;;;;;7.90;6.13;;;-0.30;99.90;;;;;;5027777;28;20182;-83
2023/12/03 03:14:20;;;;;;;13.00;7.70;;;-0.20;99.90;;;;;;5046415;28;20278;-84
2023/12/03 03:16:45;;;;;;;8.67;6.60;;;-0.10;99.90;;;;;;5054940;28;20713;-83
2023/12/03 03:19:11;;;;;;;6.93;5.70;;;-0.10;99.90;;;;;;5048261;28;20468;-84
2023/12/03 03:21:40;;;;;;;6.90;6.00;;;-0.20;99.90;;;;;;5050645;28;20205;-84
2023/12/03 03:24:06;;;;;;;8.60;6.80;;;-0.20;99.90;;;;;;5043919;28;20564;-83
2023/12/03 03:26:31;;;;;;;8.32;6.50;;;-0.30;99.90;;;;;;5036457;28;20193;-84
2023/12/03 03:28:57;;;;;;;8.20;6.10;;;-0.20;99.90;;;;;;5031678;28;20194;-84
2023/12/03 03:31:23;;;;;;;6.77;6.00;;;-0.10;99.90;;;;;;5033466;28;20470;-83
2023/12/03 03:33:51;;;;;;;8.53;6.57;;;0.20;99.90;;;;;;5035849;28;20662;-84
2023/12/03 03:36:17;;;;;;;9.00;6.05;;;-0.40;99.90;;;;;;5035937;28;20217;-84
2023/12/03 03:38:45;;;;;;;7.57;6.10;;;-0.40;99.90;;;;;;5035688;28;20178;-84
2023/12/03 03:41:11;;;;;;;7.45;6.50;;;0.00;99.90;;;;;;5033955;28;20435;-82
2023/12/03 03:43:36;;;;;;;14.83;8.17;;;-0.80;99.90;;;;;;5033455;28;20227;-84
2023/12/03 03:46:02;;;;;;;13.37;8.03;;;-0.20;99.90;;;;;;5028528;28;20621;-81
2023/12/03 03:48:28;;;;;;;11.20;7.50;;;-0.20;99.90;;;;;;5033913;28;20183;-84
2023/12/03 03:50:53;;;;;;;8.60;6.70;;;-0.30;99.90;;;;;;5033618;28;20437;-84
2023/12/03 03:53:19;;;;;;;8.07;6.90;;;-0.50;99.90;;;;;;5035027;28;20565;-83
2023/12/03 03:55:45;;;;;;;8.23;6.20;;;-0.50;99.90;;;;;;5031188;28;20261;-83
2023/12/03 03:58:10;;;;;;;8.07;7.27;;;0.10;99.90;;;;;;5031508;28;20175;-83
2023/12/03 04:00:36;;;;;;;8.10;6.23;;;-0.30;99.90;;;;;;5035406;28;20182;-83
2023/12/03 04:03:01;;;;;;;7.80;6.30;;;-0.50;99.90;;;;;;5035182;28;20178;-83
2023/12/03 04:05:27;;;;;;;7.30;6.60;;;-0.60;99.90;;;;;;5031348;28;20239;-83
2023/12/03 04:07:52;;;;;;;7.73;5.80;;;-0.60;99.90;;;;;;5032291;28;20916;-82
2023/12/03 04:10:18;;;;;;;14.03;8.53;;;-0.80;99.90;;;;;;5035027;28;20368;-83
2023/12/03 04:12:43;;;;;;;13.90;7.93;;;-0.40;99.90;;;;;;5029670;28;20293;-83
2023/12/03 04:15:09;;;;;;;8.60;6.70;;;-0.10;99.90;;;;;;5033576;28;20293;-83
2023/12/03 04:17:35;;;;;;;10.35;6.88;;;-0.20;99.90;;;;;;5032001;28;20212;-83
2023/12/03 04:20:01;;;;;;;11.33;8.00;;;-0.40;99.90;;;;;;5032516;28;20221;-83
2023/12/03 04:22:26;;;;;;;10.00;7.80;;;-0.60;99.90;;;;;;5034513;28;20831;-83
2023/12/03 04:24:52;;;;;;;9.50;6.83;;;-0.40;99.90;;;;;;5034664;28;20198;-83
2023/12/03 04:27:17;;;;;;;10.03;7.40;;;-0.10;99.90;;;;;;5030927;28;20934;-84
2023/12/03 04:29:43;;;;;;;6.83;6.03;;;-0.50;99.90;;;;;;5030663;28;20190;-83
2023/12/03 04:32:09;;;;;;;8.40;6.43;;;-0.20;99.90;;;;;;5033053;28;20537;-83
2023/12/03 04:34:37;;;;;;;8.65;6.82;;;-0.30;99.90;;;;;;5035712;28;20211;-83
2023/12/03 04:37:03;;;;;;;9.40;7.40;;;-0.10;99.90;;;;;;5033903;28;20187;-83
2023/12/03 04:39:29;;;;;;;9.93;7.00;;;-0.70;99.90;;;;;;5034956;28;20273;-83
2023/12/03 04:41:55;;;;;;;10.88;7.80;;;-0.60;99.90;;;;;;5034263;28;20460;-81
2023/12/03 04:44:20;;;;;;;10.93;7.80;;;-0.90;99.90;;;;;;5036281;28;20274;-83
2023/12/03 04:46:46;;;;;;;10.20;7.63;;;-1.10;99.90;;;;;;5034649;28;20182;-83
2023/12/03 04:49:11;;;;;;;10.30;7.50;;;-1.30;99.90;;;;;;5041439;28;20328;-83
2023/12/03 04:51:37;;;;;;;12.17;8.33;;;-0.60;99.90;;;;;;5035347;28;20206;-83
2023/12/03 04:54:03;;;;;;;10.83;7.40;;;-0.70;99.90;;;;;;5038374;28;20288;-83
2023/12/03 04:56:28;;;;;;;10.13;7.77;;;-1.40;99.90;;;;;;5037744;28;20185;-81
2023/12/03 04:58:54;;;;;;;10.17;8.13;;;-1.10;99.90;;;;;;5038964;28;20174;-82
2023/12/03 05:01:19;;;;;;;11.37;8.33;;;-1.70;99.90;;;;;;5039117;28;20182;-83
2023/12/03 05:03:45;;;;;;;10.43;7.37;;;-1.30;99.90;;;;;;5039579;28;20206;-84
2023/12/03 05:06:11;;;;;;;11.88;7.75;;;-0.90;99.90;;;;;;5037003;28;20231;-84
2023/12/03 05:08:37;;;;;;;11.40;8.35;;;-1.20;99.90;;;;;;5040995;28;20556;-83
2023/12/03 05:11:04;;;;;;;11.30;8.47;;;-1.30;99.90;;;;;;5044769;28;20174;-84
2023/12/03 05:13:30;;;;;;;11.40;8.75;;;-1.60;99.90;;;;;;5057632;28;20228;-83
2023/12/03 05:15:56;;;;;;;12.88;8.07;;;-1.10;99.90;;;;;;5051608;28;20443;-83
2023/12/03 05:18:22;;;;;;;13.53;9.03;;;-1.20;99.90;;;;;;5040596;28;20238;-82
2023/12/03 05:20:48;;;;;;;10.90;8.70;;;-1.70;99.90;;;;;;5044152;28;20197;-81
2023/12/03 05:23:14;;;;;;;10.98;7.75;;;-1.90;99.90;;;;;;5042713;28;20863;-83
2023/12/03 05:25:40;;;;;;;11.83;8.63;;;-1.70;99.90;;;;;;5042740;28;20242;-83
2023/12/03 05:28:05;;;;;;;12.20;8.67;;;-1.50;99.90;;;;;;5042555;28;20436;-81
2023/12/03 05:30:31;;;;;;;13.70;8.53;;;-1.80;99.90;;;;;;5041811;28;20240;-83
2023/12/03 05:32:58;;;;;;;12.43;8.60;;;;;;;;;;5042100;28;20187;-81
2023/12/03 05:35:24;;;;;;;11.93;8.65;;;-2.10;99.90;;;;;;5040414;28;20210;-83
2023/12/03 05:37:49;;;;;;;11.45;8.30;;;-2.00;99.90;;;;;;5043147;28;20177;-82
2023/12/03 05:40:15;;;;;;;13.33;8.83;;;-2.00;99.90;;;;;;5044845;28;20226;-83
2023/12/03 05:42:40;;;;;;;13.13;9.77;;;-1.90;99.90;;;;;;5048399;28;20197;-83
2023/12/03 05:45:06;;;;;;;13.27;10.60;;;-2.60;99.90;;;;;;5055863;28;20276;-83
2023/12/03 05:47:34;;;;;;;10.88;8.80;;;-1.70;99.90;;;;;;5045706;28;20196;-83
2023/12/03 05:50:01;;;;;;;13.65;9.20;;;-1.70;99.90;;;;;;5050978;28;20213;-83
2023/12/03 05:52:27;;;;;;;11.70;8.43;;;-1.50;99.90;;;;;;5056203;28;20290;-83
2023/12/03 05:54:52;;;;;;;11.48;8.77;;;-2.50;99.90;;;;;;5056993;28;20288;-83
2023/12/03 05:57:18;;;;;;;11.23;8.33;;;-2.20;99.90;;;;;;5051231;28;20220;-82
2023/12/03 05:59:43;;;;;;;15.10;8.83;;;-1.80;99.90;;;;;;5044240;28;20189;-83
2023/12/03 06:02:09;;;;;;;11.90;8.37;;;-2.20;99.90;;;;;;5053530;28;20181;-83
2023/12/03 06:04:34;;;;;;;13.10;8.13;;;-2.30;99.90;;;;;;5056707;28;20216;-83
2023/12/03 06:07:00;;;;;;;11.70;7.80;;;-2.20;99.90;;;;;;5057975;28;20173;-83
2023/12/03 06:09:25;;;;;;;13.80;8.37;;;-1.80;99.90;;;;;;5059737;28;20224;-83
2023/12/03 06:11:51;;;;;;;11.07;8.23;;;-2.50;99.90;;;;;;5057949;28;20164;-82
2023/12/03 06:14:17;;;;;;;15.70;8.70;;;-2.10;99.90;;;;;;5058978;28;20199;-83
2023/12/03 06:16:42;;;;;;;13.77;9.30;;;-2.50;99.90;;;;;;5057598;28;20178;-81
2023/12/03 06:19:08;;;;;;;10.67;7.93;;;-2.10;99.90;;;;;;5050734;28;20254;-83
2023/12/03 06:21:33;;;;;;;14.20;9.17;;;-2.60;99.90;;;;;;5054619;28;20174;-82
2023/12/03 06:23:59;;;;;;;14.57;9.80;;;-2.10;99.90;;;;;;5054392;28;20190;-83
2023/12/03 06:26:24;;;;;;;13.60;9.50;;;-2.40;99.90;;;;;;5048841;28;20172;-83
2023/12/03 06:28:50;;;;;;;12.47;10.27;;;-3.00;99.90;;;;;;5050959;28;20174;-82
2023/12/03 06:31:15;;;;;;;12.87;9.07;;;-2.70;99.90;;;;;;5047441;28;20222;-83
2023/12/03 06:33:41;;;;;;;14.67;9.10;;;-2.60;99.90;;;;;;5035928;28;20215;-83
2023/12/03 06:36:07;;;;;;;12.43;9.10;;;-2.60;99.90;;;;;;5032732;28;20218;-83
2023/12/03 06:38:33;;;;;;;15.38;8.52;;;-2.50;99.90;;;;;;5034159;28;20214;-83
2023/12/03 06:40:58;;;;;;;11.73;8.70;;;-2.50;99.90;;;;;;5035075;28;20185;-83
2023/12/03 06:43:24;;;;;;;15.50;9.70;;;-2.30;99.90;;;;;;5033619;28;20232;-83
2023/12/03 06:45:49;;;;;;;18.03;9.10;;;-2.30;99.90;;;;;;5029004;28;20183;-83
2023/12/03 06:48:15;;;;;;;10.93;8.17;;;-2.90;99.90;;;;;;5032315;28;20680;-83
2023/12/03 06:50:41;;;;;;;13.10;8.60;;;-2.00;99.90;;;;;;5035731;28;20278;-83
2023/12/03 06:53:06;;;;;;;14.40;8.70;;;-2.50;99.90;;;;;;5037269;28;20182;-81
2023/12/03 06:55:31;;;;;;;11.93;8.43;;;-2.20;99.90;;;;;;5035626;28;21029;-83
2023/12/03 06:57:58;;;;;;;11.10;8.33;;;-2.50;99.90;;;;;;5035180;28;20231;-83
2023/12/03 07:00:24;;;;;;;12.77;8.30;;;-2.60;99.90;;;;;;5033323;28;20227;-83
2023/12/03 07:02:50;;;;;;;12.83;9.30;;;-2.30;99.90;;;;;;5030801;28;20649;-83
2023/12/03 07:05:15;;;;;;;11.83;8.20;;;-2.80;99.90;;;;;;5032040;28;20308;-83
2023/12/03 07:07:41;;;;;;;13.63;9.43;;;-2.30;99.90;;;;;;5034714;28;20193;-83
2023/12/03 07:10:07;;;;;;;13.13;9.40;;;-2.70;99.90;;;;;;5029618;28;20445;-83
2023/12/03 07:12:33;;;;;;;14.40;8.40;;;-2.80;99.90;;;;;;5033768;28;20204;-83
2023/12/03 07:14:58;;;;;;;12.17;9.30;;;-2.50;99.90;;;;;;5030581;28;20623;-83
2023/12/03 07:17:24;;;;;;;14.40;9.00;;;-2.70;99.90;;;;;;5034085;28;20183;-83
2023/12/03 07:19:49;;;;;;;13.83;8.40;;;-3.50;99.90;;;;;;5034752;28;20549;-83
2023/12/03 07:22:15;;;;;;;11.50;9.00;;;-2.40;99.90;;;;;;5033076;28;20173;-82
2023/12/03 07:24:41;;;;;;;12.80;9.40;;;-2.80;99.90;;;;;;5031629;28;20669;-83
2023/12/03 07:27:07;;;;;;;12.40;9.00;;;-3.00;99.90;;;;;;5033717;28;20605;-83
2023/12/03 07:29:33;;;;;;;13.85;9.27;;;-2.80;99.90;;;;;;5036545;28;20241;-83
2023/12/03 07:31:59;;;;;;;11.70;8.60;;;-3.10;99.90;;;;;;5039908;28;20175;-83
2023/12/03 07:34:28;;;;;;;16.50;10.65;;;-2.60;99.90;;;;;;5049862;28;20258;-83
2023/12/03 07:36:54;;;;;;;13.45;8.38;;;-2.40;99.90;;;;;;5048153;28;20177;-84
2023/12/03 07:39:20;;;;;;;12.23;9.10;;;-2.40;99.90;;;;;;5049294;28;20233;-83
2023/12/03 07:41:52;;;;;;;13.73;8.10;;;-2.60;99.90;;;;;;5043227;28;20187;-82
2023/12/03 07:44:18;;;;;;;11.65;8.52;;;-2.20;99.90;;;;;;5030910;28;20464;-82
2023/12/03 07:46:44;;;;;;;25.07;13.47;;;-2.70;99.90;;;;;;5036547;28;20188;-82
2023/12/03 07:49:09;;;;;;;12.90;8.47;;;-2.50;99.90;;;;;;5034312;28;20438;-83
2023/12/03 07:51:35;;;;;;;16.70;10.20;;;-2.80;99.90;;;;;;5038771;28;20598;-83
2023/12/03 07:54:00;;;;;;;10.10;8.73;;;-2.20;99.90;;;;;;5036472;28;20216;-83
2023/12/03 07:56:40;;;;;;;12.50;8.73;;;-2.90;99.90;;;;;;5034715;28;20200;-83
2023/12/03 07:59:06;;;;;;;12.13;8.57;;;-2.60;99.90;;;;;;5035962;28;20186;-82
2023/12/03 08:01:32;;;;;;;10.98;9.07;;;-2.40;99.90;;;;;;5043510;28;20181;-82
2023/12/03 08:03:58;;;;;;;12.40;9.37;;;-2.50;99.90;;;;;;5034662;28;20295;-81
2023/12/03 08:06:25;;;;;;;14.02;9.90;;;-2.30;99.90;;;;;;5052729;28;20530;-82
2023/12/03 08:08:52;;;;;;;12.63;9.80;;;-2.50;99.90;;;;;;5040274;28;20174;-82
2023/12/03 08:11:18;;;;;;;14.05;9.50;;;-2.40;99.90;;;;;;5035663;28;20220;-82
2023/12/03 08:13:43;;;;;;;14.70;10.10;;;-2.90;99.90;;;;;;5036482;28;20613;-82
2023/12/03 08:16:09;;;;;;;15.40;10.30;;;-2.30;99.90;;;;;;5040191;28;20299;-82
2023/12/03 08:18:35;;;;;;;15.30;9.90;;;-1.80;99.90;;;;;;5045197;28;20177;-82
2023/12/03 08:21:00;;;;;;;12.10;9.37;;;-2.70;99.90;;;;;;5039685;28;20204;-82
2023/12/03 08:23:26;;;;;;;14.87;9.27;;;-2.50;99.90;;;;;;5042700;28;20681;-82
2023/12/03 08:25:52;;;;;;;15.50;10.10;;;;;;;;;;5038453;28;20185;-82
2023/12/03 08:28:18;;;;;;;14.93;10.57;;;-2.70;99.90;;;;;;5045276;28;20208;-82
2023/12/03 08:30:44;;;;;;;16.67;10.33;;;-2.40;99.90;;;;;;5054750;28;20187;-82
2023/12/03 08:33:09;;;;;;;15.20;10.80;;;-2.20;99.90;;;;;;5046121;28;20451;-82
2023/12/03 08:35:35;;;;;;;16.50;10.63;;;-2.40;99.90;;;;;;5034214;28;20208;-82
2023/12/03 08:38:01;;;;;;;16.57;11.50;;;-2.20;99.90;;;;;;5034907;28;20183;-82
2023/12/03 08:40:27;;;;;;;15.57;11.33;;;-2.20;99.90;;;;;;5039491;28;20356;-82
2023/12/03 08:42:52;;;;;;;15.23;10.35;;;-2.40;99.90;;;;;;5037638;28;20191;-82
2023/12/03 08:45:18;;;;;;;16.80;10.97;;;-2.10;99.90;;;;;;5036553;28;20678;-82
2023/12/03 08:47:43;;;;;;;14.13;9.83;;;-1.70;99.90;;;;;;5035117;28;20205;-82
2023/12/03 08:50:09;;;;;;;15.97;10.80;;;-2.00;99.90;;;;;;5036336;28;20248;-82
2023/12/03 08:52:35;;;;;;;14.67;10.17;;;-1.90;99.90;;;;;;5036031;28;20174;-82
2023/12/03 08:55:02;;;;;;;16.43;9.87;;;-1.80;99.90;;;;;;5037814;28;20221;-82
2023/12/03 08:57:28;;;;;;;14.27;10.48;;;-1.70;99.90;;;;;;5036077;28;20188;-82
2023/12/03 08:59:54;;;;;;;14.93;10.20;;;-1.60;99.90;;;;;;5037765;28;20189;-82
2023/12/03 09:02:20;;;;;;;14.75;11.95;;;-1.60;99.90;;;;;;5033468;28;20189;-82
2023/12/03 09:04:45;;;;;;;17.30;12.23;;;-1.50;99.90;;;;;;5036329;28;20210;-83
2023/12/03 09:07:11;;;;;;;16.27;11.73;;;-1.50;99.90;;;;;;5033931;28;20481;-83
2023/12/03 09:09:36;;;;;;;16.10;12.40;;;-0.80;99.90;;;;;;5036025;28;20222;-83
2023/12/03 09:12:03;;;;;;;13.40;9.80;;;0.00;99.90;;;;;;5049482;28;20167;-83
2023/12/03 09:14:28;;;;;;;17.45;11.00;;;0.10;99.90;;;;;;5054868;28;20224;-83
2023/12/03 09:16:55;;;;;;;13.50;9.83;;;0.60;99.90;;;;;;5024815;28;20183;-83
2023/12/03 09:19:20;;;;;;;12.98;10.40;;;0.60;99.90;;;;;;5039653;28;20448;-83
2023/12/03 09:21:46;;;;;;;13.97;10.97;;;;;;;;;;5039716;28;20175;-83
2023/12/03 09:24:15;;;;;;;13.73;10.97;;;2.10;99.90;;;;;;5037029;28;20206;-83
2023/12/03 09:26:43;;;;;;;11.05;9.70;;;;;;;;;;5036527;28;20440;-83
2023/12/03 09:29:10;;;;;;;13.85;10.90;;;3.40;97.20;;;;;;5040919;28;20227;-83
2023/12/03 09:31:36;;;;;;;11.43;10.10;;;3.40;96.70;;;;;;5038470;28;20185;-83
2023/12/03 09:34:01;;;;;;;10.80;9.20;;;4.30;96.20;;;;;;5045371;28;20213;-82
2023/12/03 09:36:27;;;;;;;11.67;8.13;;;5.90;92.10;;;;;;5055049;23;20200;-92
2023/12/03 09:38:52;;;;;;;11.23;9.40;;;6.20;92.50;;;;;;5045147;28;20443;-92
2023/12/03 09:41:21;;;;;;;11.60;9.13;;;7.50;89.70;;;;;;5023136;28;20262;-92
2023/12/03 09:43:51;;;;;;;12.23;9.10;;;5.60;86.50;;;;;;5030939;28;20203;-92
2023/12/03 09:46:17;;;;;;;11.73;9.93;;;6.30;88.80;;;;;;5036868;28;20178;-92
2023/12/03 09:48:43;;;;;;;10.33;9.20;;;6.70;87.30;;;;;;5038290;28;20182;-92
2023/12/03 09:51:11;;;;;;;11.85;9.90;;;6.10;86.90;;;;;;5034443;28;20954;-93
2023/12/03 09:53:42;;;;;;;9.73;8.73;;;5.80;88.20;;;;;;5029731;28;20206;-92
2023/12/03 09:56:09;;;;;;;17.40;10.40;;;5.60;90.10;;;;;;5035129;28;20626;-92
2023/12/03 09:58:34;;;;;;;10.20;9.10;;;5.40;89.90;;;;;;5034650;28;20186;-92
2023/12/03 10:01:01;;;;;;;11.53;9.60;;;5.70;88.20;;;;;;5033691;28;20281;-92
2023/12/03 10:03:27;;;;;;;11.52;10.30;;;5.00;89.30;;;;;;5037303;28;20356;-88
2023/12/03 10:05:52;;;;;;;13.37;10.20;;;4.60;91.00;;;;;;5036950;28;20204;-90
2023/12/03 10:08:18;;;;;;;13.50;10.70;;;4.00;92.50;;;;;;5046635;28;20190;-90
2023/12/03 10:10:50;;;;;;;13.30;10.13;;;3.10;93.50;;;;;;5055299;28;20173;-90
2023/12/03 10:13:17;;;;;;;13.65;10.75;;;4.30;93.10;;;;;;5056672;28;20195;-90
2023/12/03 10:15:43;;;;;;;13.73;10.85;;;4.50;93.50;;;;;;5057462;28;20239;-89
2023/12/03 10:18:08;;;;;;;13.77;10.65;;;4.40;92.50;;;;;;5042265;28;20194;-89
2023/12/03 10:20:34;;;;;;;11.30;9.73;;;5.20;92.30;;;;;;5035382;28;20182;-90
2023/12/03 10:23:03;;;;;;;13.33;10.50;;;5.30;91.10;;;;;;5036763;28;20198;-91
2023/12/03 10:25:31;;;;;;;12.88;10.13;;;5.10;91.40;;;;;;5035375;28;20850;-91
2023/12/03 10:27:59;;;;;;;12.18;10.35;;;5.40;90.90;;;;;;5033886;28;20178;-91
2023/12/03 10:30:25;;;;;;;17.00;9.95;;;6.90;90.10;;;;;;5030364;28;20277;-91
2023/12/03 10:33:00;;;;;;;9.90;8.75;;;6.80;86.50;;;;;;5035592;28;20289;-91
2023/12/03 10:35:35;;;;;;;10.90;9.30;;;6.80;84.10;;;;;;5061771;28;20225;-92
2023/12/03 10:38:21;;;;;;;10.18;8.50;;;7.40;85.50;;;;;;5048722;28;20201;-93
2023/12/03 10:41:23;;;;;;;9.40;7.90;;;6.10;83.10;;;;;;5043936;28;20692;-92
2023/12/03 10:43:50;;;;;;;9.77;8.43;;;8.70;87.00;;;;;;5048027;28;20212;-92
2023/12/03 10:55:38;;;;;;;11.70;8.63;;;5.30;90.30;;;;;;5726537;23;20718;-93
2023/12/03 11:02:13;;;;;;;11.43;9.15;;;4.70;90.00;;;;;;5046654;28;20243;-93
2023/12/03 11:04:58;;;;;;;10.55;8.98;;;5.30;91.30;;;;;;5009459;28;20224;-90
2023/12/03 11:07:24;;;;;;;9.27;8.15;;;4.60;92.00;;;;;;5050189;28;20733;-90
2023/12/03 11:09:50;;;;;;;9.55;7.65;;;4.30;92.30;;;;;;5032244;28;20276;-91
2023/12/03 11:12:21;;;;;;;11.40;9.48;;;4.90;92.40;;;;;;5041461;28;20265;-93
2023/12/03 11:17:38;;;;;;;10.93;9.73;;;5.10;90.60;;;;;;5456241;22;20231;-93
2023/12/03 11:32:20;;;;;;;10.23;8.60;;;4.20;91.50;;;;;;5000466;28;22941;-92
2023/12/03 11:35:12;;;;;;;10.70;8.98;;;4.20;91.80;;;;;;5706426;22;20433;-92
2023/12/03 11:37:41;;;;;;;9.73;8.00;;;4.20;91.90;;;;;;5023799;28;20230;-90
2023/12/03 11:40:16;;;;;;;10.45;8.85;;;4.30;92.40;;;;;;5022492;28;20240;-90
2023/12/03 11:50:26;;;;;;;12.43;9.60;;;3.80;93.90;;;;;;5502397;22;20239;-92
2023/12/03 12:31:40;;;;;;;10.32;8.48;;;3.10;95.10;;;;;;5063083;23;20467;-93
2023/12/03 12:34:07;;;;;;;11.40;8.80;;;2.70;95.60;;;;;;5041642;28;20220;-93
2023/12/03 12:36:33;;;;;;;9.85;7.78;;;3.10;96.30;;;;;;5036090;28;20187;-93
2023/12/03 12:38:59;;;;;;;10.17;8.23;;;2.60;96.30;;;;;;5035416;28;20207;-93
2023/12/03 12:41:24;;;;;;;10.70;7.40;;;2.80;97.00;;;;;;5037055;28;20302;-94
2023/12/03 12:43:58;;;;;;;12.80;8.50;;;2.80;97.70;;;;;;5034166;28;20270;-94
2023/12/03 12:46:24;;;;;;;9.65;7.65;;;;;;;;;;5020576;28;20250;-93
2023/12/03 12:48:50;;;;;;;10.32;8.95;;;2.50;98.00;;;;;;5024993;28;20191;-92
2023/12/03 12:51:26;;;;;;;10.13;8.55;;;2.90;98.20;;;;;;5039080;28;20195;-93
2023/12/03 12:53:58;;;;;;;10.88;9.10;;;2.80;98.70;;;;;;5034342;28;20587;-93
2023/12/03 12:56:25;;;;;;;10.20;8.27;;;2.90;99.10;;;;;;5030810;28;20218;-93
2023/12/03 12:58:54;;;;;;;9.70;7.35;;;3.90;99.70;;;;;;5031710;28;20231;-92
2023/12/03 13:01:23;;;;;;;9.73;8.32;;;;;;;;;;5035432;28;20226;-93
2023/12/03 13:03:49;;;;;;;9.88;8.40;;;;;;;;;;5037139;28;20208;-93
2023/12/03 13:06:18;;;;;;;10.60;8.18;;;2.60;99.80;;;;;;5030999;28;20205;-94
2023/12/03 13:08:47;;;;;;;9.50;7.38;;;2.80;99.90;;;;;;5002821;28;20540;-93
2023/12/03 13:11:12;;;;;;;11.52;8.23;;;2.30;99.80;;;;;;5015960;28;20257;-93
2023/12/03 13:13:38;;;;;;;11.77;9.17;;;3.60;99.90;;;;;;5047552;28;20278;-94
2023/12/03 13:16:05;;;;;;;11.17;8.27;;;2.00;99.80;;;;;;5030442;28;20276;-93
2023/12/03 13:18:38;;;;;;;9.20;7.38;;;;;;;;;;5031313;28;20219;-92
2023/12/03 13:21:04;;;;;;;12.82;7.97;;;;;;;;;;5038272;28;20176;-91
2023/12/03 13:23:33;;;;;;;8.80;7.45;;;;;;;;;;5021242;28;20226;-91
2023/12/03 13:25:58;;;;;;;11.00;7.47;;;2.40;99.80;;;;;;5027224;28;20191;-92
2023/12/03 13:28:25;;;;;;;8.23;6.50;;;;;;;;;;5023331;28;20270;-93
2023/12/03 13:30:51;;;;;;;8.20;6.60;;;2.20;99.80;;;;;;5020543;28;20195;-92
2023/12/03 13:33:16;;;;;;;7.25;6.38;;;2.40;99.70;;;;;;5004672;28;20663;-92
2023/12/03 13:35:42;;;;;;;9.53;7.00;;;2.40;99.90;;;;;;5019506;28;20210;-88
2023/12/03 13:38:07;;;;;;;9.90;7.83;;;2.20;99.90;;;;;;5017221;28;20193;-88
2023/12/03 13:40:33;;;;;;;8.27;6.80;;;2.20;99.90;;;;;;5016588;28;20180;-89
2023/12/03 13:42:58;;;;;;;11.53;6.63;;;2.20;99.90;;;;;;5016630;28;20176;-88
2023/12/03 13:45:24;;;;;;;8.00;6.73;;;2.50;99.90;;;;;;5016159;28;20717;-90
2023/12/03 13:47:49;;;;;;;7.53;6.73;;;2.10;99.90;;;;;;5014978;28;20180;-88
2023/12/03 13:50:15;;;;;;;10.23;7.10;;;1.80;99.90;;;;;;5015211;28;20274;-88
2023/12/03 13:52:40;;;;;;;7.10;6.40;;;2.00;99.90;;;;;;5020343;28;20237;-90
2023/12/03 13:55:21;;;;;;;9.50;7.27;;;1.80;99.90;;;;;;5037366;28;20203;-92
2023/12/03 13:57:47;;;;;;;7.70;6.43;;;1.80;99.90;;;;;;5012500;28;20200;-88